首页
METAR-TAF:

METAR-TAF

机场 :

菲利普戈尔德森国际机场

伯利兹, 伯利兹

纬度: 17-32N, 经度: 088-18W, 海拔: 5米

当前天气观测

该预报发布于44分钟前的17:00 UTC
静风
温度 27°C
湿度 58%
气压 1017 hPa
能见度10公里或以上
1500米以下无云,无积雨云

METAR: MZBZ 201700Z 00000KT CAVOK 27/18 A3003 Q1017 NOSIG

时间: 11:44 (17:44 UTC)

预报

该预报发布于2小时和44分钟前的15:00 UTC
预报有效从20日的 18点(UTC)到 21日的 18点(UTC)
风速7节,风向东北
能见度10公里或以上
散云层高于2400英尺
成为
从 21日的 06点(UTC)到 21日的 08点(UTC)
风速4节,风向西北
成为
从 21日的 15点(UTC)到 21日的 17点(UTC)
风速5节,风向北转东北
几率 30% :
短暂存在
从 21日的 15点(UTC)到 21日的 18点(UTC)
能見度: 5000
多云层高于1500英尺
阵雨

TAF: MZBZ 201500Z 2018/2118 04007KT 9999 SCT024 BECMG 2106/2108 32004KT BECMG 2115/21170 03005KT PROB30 TEMPO 2115/2118 5000 SHRA BKN015

超过4000个机场的气象观测和天气预报(METAR&TAF报告)。

可查询的气象台以黄色和红色小点在地图上表示。

将鼠标移到小点上方,可查看气象台名称。

然后点击查看天气观测和预报。

如需切换地图:点击带黑十字的绿色按钮放大地图;点击带横线的绿色按钮缩小地图;或者点击绿色箭头查看邻近地区的地图。


METAR-TAF: